sensor_id;sensor_type;location;lat;lon;timestamp;P1;durP1;ratioP1;P2;durP2;ratioP2
23676;SDS011;31493;49.058;12.190;2024-03-08T00:01:47;31.00;;;18.88;;
23676;SDS011;31493;49.058;12.190;2024-03-08T00:04:15;40.70;;;23.70;;
23676;SDS011;31493;49.058;12.190;2024-03-08T00:06:42;37.70;;;23.20;;
23676;SDS011;31493;49.058;12.190;2024-03-08T00:09:11;41.38;;;23.50;;
23676;SDS011;31493;49.058;12.190;2024-03-08T00:11:39;36.28;;;22.92;;
23676;SDS011;31493;49.058;12.190;2024-03-08T00:14:06;38.83;;;23.63;;
23676;SDS011;31493;49.058;12.190;2024-03-08T00:16:33;36.38;;;22.48;;
23676;SDS011;31493;49.058;12.190;2024-03-08T00:19:01;42.50;;;23.50;;
23676;SDS011;31493;49.058;12.190;2024-03-08T00:21:28;38.55;;;23.48;;
23676;SDS011;31493;49.058;12.190;2024-03-08T00:23:55;38.17;;;23.70;;
23676;SDS011;31493;49.058;12.190;2024-03-08T00:26:22;37.22;;;22.63;;
23676;SDS011;31493;49.058;12.190;2024-03-08T00:28:50;37.38;;;23.20;;
23676;SDS011;31493;49.058;12.190;2024-03-08T00:31:17;34.08;;;21.63;;
23676;SDS011;31493;49.058;12.190;2024-03-08T00:33:44;37.30;;;22.27;;
23676;SDS011;31493;49.058;12.190;2024-03-08T00:36:11;35.53;;;22.38;;
23676;SDS011;31493;49.058;12.190;2024-03-08T00:38:38;36.78;;;23.40;;
23676;SDS011;31493;49.058;12.190;2024-03-08T00:41:04;39.70;;;22.25;;
23676;SDS011;31493;49.058;12.190;2024-03-08T00:43:31;35.38;;;22.10;;
23676;SDS011;31493;49.058;12.190;2024-03-08T00:46:00;34.30;;;21.15;;
23676;SDS011;31493;49.058;12.190;2024-03-08T00:48:27;34.25;;;22.08;;
23676;SDS011;31493;49.058;12.190;2024-03-08T00:50:54;30.70;;;20.10;;
23676;SDS011;31493;49.058;12.190;2024-03-08T00:53:21;34.65;;;21.88;;
23676;SDS011;31493;49.058;12.190;2024-03-08T00:55:48;33.92;;;20.73;;
23676;SDS011;31493;49.058;12.190;2024-03-08T00:58:15;34.58;;;21.73;;
23676;SDS011;31493;49.058;12.190;2024-03-08T01:00:42;35.67;;;22.13;;
23676;SDS011;31493;49.058;12.190;2024-03-08T01:03:11;34.47;;;21.67;;
23676;SDS011;31493;49.058;12.190;2024-03-08T01:05:38;33.55;;;21.52;;
23676;SDS011;31493;49.058;12.190;2024-03-08T01:08:05;35.90;;;21.02;;
23676;SDS011;31493;49.058;12.190;2024-03-08T01:10:33;37.17;;;21.35;;
23676;SDS011;31493;49.058;12.190;2024-03-08T01:13:00;34.80;;;21.90;;
23676;SDS011;31493;49.058;12.190;2024-03-08T01:15:27;41.17;;;22.85;;
23676;SDS011;31493;49.058;12.190;2024-03-08T01:17:54;36.80;;;21.35;;
23676;SDS011;31493;49.058;12.190;2024-03-08T01:20:22;32.20;;;22.52;;
23676;SDS011;31493;49.058;12.190;2024-03-08T01:22:49;38.25;;;21.98;;
23676;SDS011;31493;49.058;12.190;2024-03-08T01:25:17;36.25;;;21.83;;
23676;SDS011;31493;49.058;12.190;2024-03-08T01:27:44;33.88;;;22.60;;
23676;SDS011;31493;49.058;12.190;2024-03-08T01:30:11;34.45;;;21.60;;
23676;SDS011;31493;49.058;12.190;2024-03-08T01:32:38;36.80;;;22.25;;
23676;SDS011;31493;49.058;12.190;2024-03-08T01:35:06;36.63;;;21.85;;
23676;SDS011;31493;49.058;12.190;2024-03-08T01:37:36;35.97;;;22.17;;
23676;SDS011;31493;49.058;12.190;2024-03-08T01:40:03;34.67;;;22.02;;
23676;SDS011;31493;49.058;12.190;2024-03-08T01:42:32;34.55;;;22.50;;
23676;SDS011;31493;49.058;12.190;2024-03-08T01:44:59;34.22;;;20.58;;
23676;SDS011;31493;49.058;12.190;2024-03-08T01:47:26;36.88;;;21.63;;
23676;SDS011;31493;49.058;12.190;2024-03-08T01:49:53;38.38;;;22.17;;
23676;SDS011;31493;49.058;12.190;2024-03-08T01:52:20;35.67;;;22.08;;
23676;SDS011;31493;49.058;12.190;2024-03-08T01:54:50;39.03;;;22.30;;
23676;SDS011;31493;49.058;12.190;2024-03-08T01:57:17;37.75;;;23.58;;
23676;SDS011;31493;49.058;12.190;2024-03-08T01:59:44;40.92;;;24.08;;
23676;SDS011;31493;49.058;12.190;2024-03-08T02:02:12;39.30;;;22.88;;
23676;SDS011;31493;49.058;12.190;2024-03-08T02:04:45;37.58;;;22.60;;
23676;SDS011;31493;49.058;12.190;2024-03-08T02:07:12;37.65;;;23.45;;
23676;SDS011;31493;49.058;12.190;2024-03-08T02:09:39;35.83;;;22.80;;
23676;SDS011;31493;49.058;12.190;2024-03-08T02:12:08;40.72;;;23.02;;
23676;SDS011;31493;49.058;12.190;2024-03-08T02:14:35;38.38;;;23.23;;
23676;SDS011;31493;49.058;12.190;2024-03-08T02:17:02;36.40;;;22.50;;
23676;SDS011;31493;49.058;12.190;2024-03-08T02:19:30;35.42;;;21.60;;
23676;SDS011;31493;49.058;12.190;2024-03-08T02:21:59;35.23;;;22.17;;
23676;SDS011;31493;49.058;12.190;2024-03-08T02:24:29;37.72;;;21.55;;
23676;SDS011;31493;49.058;12.190;2024-03-08T02:26:57;36.63;;;22.80;;
23676;SDS011;31493;49.058;12.190;2024-03-08T02:29:24;38.78;;;23.65;;
23676;SDS011;31493;49.058;12.190;2024-03-08T02:31:51;40.95;;;23.65;;
23676;SDS011;31493;49.058;12.190;2024-03-08T02:34:18;37.15;;;22.88;;
23676;SDS011;31493;49.058;12.190;2024-03-08T02:36:45;40.08;;;23.35;;
23676;SDS011;31493;49.058;12.190;2024-03-08T02:39:14;38.42;;;23.10;;
23676;SDS011;31493;49.058;12.190;2024-03-08T02:41:41;37.67;;;23.38;;
23676;SDS011;31493;49.058;12.190;2024-03-08T02:44:08;41.72;;;24.40;;
23676;SDS011;31493;49.058;12.190;2024-03-08T02:46:36;35.28;;;22.92;;
23676;SDS011;31493;49.058;12.190;2024-03-08T02:49:03;37.95;;;24.10;;
23676;SDS011;31493;49.058;12.190;2024-03-08T02:51:30;36.00;;;22.30;;
23676;SDS011;31493;49.058;12.190;2024-03-08T02:53:57;41.03;;;24.20;;
23676;SDS011;31493;49.058;12.190;2024-03-08T02:56:25;41.03;;;24.67;;
23676;SDS011;31493;49.058;12.190;2024-03-08T02:58:52;36.75;;;23.02;;
23676;SDS011;31493;49.058;12.190;2024-03-08T03:01:19;41.13;;;24.52;;
23676;SDS011;31493;49.058;12.190;2024-03-08T03:03:47;38.00;;;25.42;;
23676;SDS011;31493;49.058;12.190;2024-03-08T03:06:14;42.58;;;25.58;;
23676;SDS011;31493;49.058;12.190;2024-03-08T03:08:42;41.78;;;25.48;;
23676;SDS011;31493;49.058;12.190;2024-03-08T03:11:11;41.38;;;25.73;;
23676;SDS011;31493;49.058;12.190;2024-03-08T03:13:40;38.78;;;23.95;;
23676;SDS011;31493;49.058;12.190;2024-03-08T03:16:08;42.17;;;26.58;;
23676;SDS011;31493;49.058;12.190;2024-03-08T03:18:35;45.65;;;26.48;;
23676;SDS011;31493;49.058;12.190;2024-03-08T03:21:03;45.60;;;27.88;;
23676;SDS011;31493;49.058;12.190;2024-03-08T03:23:33;42.70;;;27.40;;
23676;SDS011;31493;49.058;12.190;2024-03-08T03:26:00;45.63;;;26.33;;
23676;SDS011;31493;49.058;12.190;2024-03-08T03:28:28;44.95;;;26.63;;
23676;SDS011;31493;49.058;12.190;2024-03-08T03:30:56;47.15;;;27.60;;
23676;SDS011;31493;49.058;12.190;2024-03-08T03:33:24;45.85;;;26.95;;
23676;SDS011;31493;49.058;12.190;2024-03-08T03:35:51;44.53;;;26.67;;
23676;SDS011;31493;49.058;12.190;2024-03-08T03:38:18;44.60;;;27.02;;
23676;SDS011;31493;49.058;12.190;2024-03-08T03:40:48;47.38;;;28.10;;
23676;SDS011;31493;49.058;12.190;2024-03-08T03:43:18;47.60;;;27.55;;
23676;SDS011;31493;49.058;12.190;2024-03-08T03:45:45;45.13;;;27.00;;
23676;SDS011;31493;49.058;12.190;2024-03-08T03:48:13;47.67;;;27.02;;
23676;SDS011;31493;49.058;12.190;2024-03-08T03:50:40;47.05;;;29.38;;
23676;SDS011;31493;49.058;12.190;2024-03-08T03:53:07;44.90;;;27.00;;
23676;SDS011;31493;49.058;12.190;2024-03-08T03:55:35;42.85;;;26.67;;
23676;SDS011;31493;49.058;12.190;2024-03-08T03:58:02;42.83;;;26.98;;
23676;SDS011;31493;49.058;12.190;2024-03-08T04:00:29;44.67;;;27.00;;
23676;SDS011;31493;49.058;12.190;2024-03-08T04:02:57;44.40;;;27.55;;
23676;SDS011;31493;49.058;12.190;2024-03-08T04:05:27;44.35;;;28.63;;
23676;SDS011;31493;49.058;12.190;2024-03-08T04:07:54;45.60;;;27.40;;
23676;SDS011;31493;49.058;12.190;2024-03-08T04:10:21;48.47;;;29.80;;
23676;SDS011;31493;49.058;12.190;2024-03-08T04:12:48;48.63;;;27.23;;
23676;SDS011;31493;49.058;12.190;2024-03-08T04:15:15;44.40;;;27.80;;
23676;SDS011;31493;49.058;12.190;2024-03-08T04:17:42;44.92;;;27.60;;
23676;SDS011;31493;49.058;12.190;2024-03-08T04:22:40;47.13;;;29.05;;
23676;SDS011;31493;49.058;12.190;2024-03-08T04:25:07;45.10;;;27.63;;
23676;SDS011;31493;49.058;12.190;2024-03-08T04:27:35;45.25;;;28.25;;
23676;SDS011;31493;49.058;12.190;2024-03-08T04:30:02;45.47;;;26.70;;
23676;SDS011;31493;49.058;12.190;2024-03-08T04:32:33;44.00;;;27.75;;
23676;SDS011;31493;49.058;12.190;2024-03-08T04:35:00;45.90;;;26.98;;
23676;SDS011;31493;49.058;12.190;2024-03-08T04:39:57;43.25;;;27.48;;
23676;SDS011;31493;49.058;12.190;2024-03-08T04:44:52;40.70;;;25.77;;
23676;SDS011;31493;49.058;12.190;2024-03-08T04:47:19;45.60;;;27.80;;
23676;SDS011;31493;49.058;12.190;2024-03-08T04:49:46;43.22;;;26.08;;
23676;SDS011;31493;49.058;12.190;2024-03-08T04:52:13;49.50;;;28.13;;
23676;SDS011;31493;49.058;12.190;2024-03-08T04:54:40;47.17;;;28.20;;
23676;SDS011;31493;49.058;12.190;2024-03-08T04:57:08;46.25;;;27.23;;
23676;SDS011;31493;49.058;12.190;2024-03-08T04:59:36;45.30;;;26.60;;
23676;SDS011;31493;49.058;12.190;2024-03-08T05:02:03;43.88;;;28.20;;
23676;SDS011;31493;49.058;12.190;2024-03-08T05:04:30;46.35;;;28.20;;
23676;SDS011;31493;49.058;12.190;2024-03-08T05:06:57;42.97;;;27.40;;
23676;SDS011;31493;49.058;12.190;2024-03-08T05:09:26;45.90;;;28.02;;
23676;SDS011;31493;49.058;12.190;2024-03-08T05:11:54;50.00;;;29.27;;
23676;SDS011;31493;49.058;12.190;2024-03-08T05:14:23;43.17;;;27.98;;
23676;SDS011;31493;49.058;12.190;2024-03-08T05:16:50;48.05;;;28.55;;
23676;SDS011;31493;49.058;12.190;2024-03-08T05:19:18;45.88;;;28.20;;
23676;SDS011;31493;49.058;12.190;2024-03-08T05:21:46;49.38;;;27.88;;
23676;SDS011;31493;49.058;12.190;2024-03-08T05:24:14;35.00;;;22.20;;
23676;SDS011;31493;49.058;12.190;2024-03-08T05:26:41;47.65;;;28.77;;
23676;SDS011;31493;49.058;12.190;2024-03-08T05:29:09;48.22;;;27.77;;
23676;SDS011;31493;49.058;12.190;2024-03-08T05:31:38;48.08;;;28.67;;
23676;SDS011;31493;49.058;12.190;2024-03-08T05:34:13;47.65;;;27.90;;
23676;SDS011;31493;49.058;12.190;2024-03-08T05:36:40;47.10;;;27.67;;
23676;SDS011;31493;49.058;12.190;2024-03-08T05:39:09;49.05;;;27.23;;
23676;SDS011;31493;49.058;12.190;2024-03-08T05:41:37;47.65;;;29.05;;
23676;SDS011;31493;49.058;12.190;2024-03-08T05:44:04;42.83;;;27.00;;
23676;SDS011;31493;49.058;12.190;2024-03-08T05:46:32;46.15;;;28.77;;
23676;SDS011;31493;49.058;12.190;2024-03-08T05:49:00;48.10;;;27.52;;
23676;SDS011;31493;49.058;12.190;2024-03-08T05:51:30;47.25;;;29.02;;
23676;SDS011;31493;49.058;12.190;2024-03-08T05:54:00;50.45;;;28.08;;
23676;SDS011;31493;49.058;12.190;2024-03-08T05:56:28;47.88;;;28.48;;
23676;SDS011;31493;49.058;12.190;2024-03-08T05:58:55;52.38;;;29.42;;
23676;SDS011;31493;49.058;12.190;2024-03-08T06:01:23;48.70;;;29.20;;
23676;SDS011;31493;49.058;12.190;2024-03-08T06:03:50;45.63;;;27.80;;
23676;SDS011;31493;49.058;12.190;2024-03-08T06:06:21;44.90;;;27.10;;
23676;SDS011;31493;49.058;12.190;2024-03-08T06:11:16;45.65;;;26.55;;
23676;SDS011;31493;49.058;12.190;2024-03-08T06:13:44;46.00;;;27.70;;
23676;SDS011;31493;49.058;12.190;2024-03-08T06:16:11;46.00;;;26.50;;
23676;SDS011;31493;49.058;12.190;2024-03-08T06:18:38;47.28;;;28.77;;
23676;SDS011;31493;49.058;12.190;2024-03-08T06:21:05;45.70;;;27.85;;
23676;SDS011;31493;49.058;12.190;2024-03-08T06:23:33;47.08;;;28.98;;
23676;SDS011;31493;49.058;12.190;2024-03-08T06:26:03;48.33;;;28.40;;
23676;SDS011;31493;49.058;12.190;2024-03-08T06:28:31;44.88;;;27.05;;
23676;SDS011;31493;49.058;12.190;2024-03-08T06:30:58;53.47;;;28.13;;
23676;SDS011;31493;49.058;12.190;2024-03-08T06:33:25;52.33;;;29.42;;
23676;SDS011;31493;49.058;12.190;2024-03-08T06:35:53;50.25;;;28.08;;
23676;SDS011;31493;49.058;12.190;2024-03-08T06:38:22;47.78;;;28.35;;
23676;SDS011;31493;49.058;12.190;2024-03-08T06:40:51;46.72;;;28.52;;
23676;SDS011;31493;49.058;12.190;2024-03-08T06:45:45;45.70;;;26.38;;
23676;SDS011;31493;49.058;12.190;2024-03-08T06:48:14;44.10;;;26.85;;
23676;SDS011;31493;49.058;12.190;2024-03-08T06:50:42;45.13;;;26.77;;
23676;SDS011;31493;49.058;12.190;2024-03-08T06:53:10;46.93;;;27.60;;
23676;SDS011;31493;49.058;12.190;2024-03-08T06:55:37;42.65;;;26.70;;
23676;SDS011;31493;49.058;12.190;2024-03-08T06:58:06;45.60;;;26.10;;
23676;SDS011;31493;49.058;12.190;2024-03-08T07:00:33;44.22;;;26.80;;
23676;SDS011;31493;49.058;12.190;2024-03-08T07:03:00;45.00;;;26.35;;
23676;SDS011;31493;49.058;12.190;2024-03-08T07:05:27;44.58;;;26.88;;
23676;SDS011;31493;49.058;12.190;2024-03-08T07:07:55;41.28;;;24.98;;
23676;SDS011;31493;49.058;12.190;2024-03-08T07:10:22;45.00;;;27.15;;
23676;SDS011;31493;49.058;12.190;2024-03-08T07:12:50;41.92;;;25.23;;
23676;SDS011;31493;49.058;12.190;2024-03-08T07:15:18;42.15;;;25.60;;
23676;SDS011;31493;49.058;12.190;2024-03-08T07:17:46;42.38;;;25.15;;
23676;SDS011;31493;49.058;12.190;2024-03-08T07:20:13;42.33;;;25.55;;
23676;SDS011;31493;49.058;12.190;2024-03-08T07:22:44;38.88;;;25.05;;
23676;SDS011;31493;49.058;12.190;2024-03-08T07:25:13;46.08;;;26.70;;
23676;SDS011;31493;49.058;12.190;2024-03-08T07:27:47;42.10;;;24.58;;
23676;SDS011;31493;49.058;12.190;2024-03-08T07:30:14;43.22;;;23.95;;
23676;SDS011;31493;49.058;12.190;2024-03-08T07:33:05;45.28;;;25.95;;
23676;SDS011;31493;49.058;12.190;2024-03-08T07:38:02;41.80;;;22.77;;
23676;SDS011;31493;49.058;12.190;2024-03-08T07:40:31;44.15;;;24.38;;
23676;SDS011;31493;49.058;12.190;2024-03-08T07:42:58;39.65;;;23.48;;
23676;SDS011;31493;49.058;12.190;2024-03-08T07:45:25;37.28;;;23.17;;
23676;SDS011;31493;49.058;12.190;2024-03-08T07:47:53;37.60;;;23.83;;
23676;SDS011;31493;49.058;12.190;2024-03-08T07:50:23;34.75;;;21.17;;
23676;SDS011;31493;49.058;12.190;2024-03-08T07:52:50;32.25;;;19.40;;
23676;SDS011;31493;49.058;12.190;2024-03-08T07:55:17;26.20;;;16.42;;
23676;SDS011;31493;49.058;12.190;2024-03-08T07:57:44;28.23;;;16.77;;
23676;SDS011;31493;49.058;12.190;2024-03-08T08:00:13;29.65;;;15.68;;
23676;SDS011;31493;49.058;12.190;2024-03-08T08:02:43;27.27;;;15.60;;
23676;SDS011;31493;49.058;12.190;2024-03-08T08:05:11;24.83;;;15.15;;
23676;SDS011;31493;49.058;12.190;2024-03-08T08:07:43;24.30;;;14.87;;
23676;SDS011;31493;49.058;12.190;2024-03-08T08:10:11;25.98;;;15.25;;
23676;SDS011;31493;49.058;12.190;2024-03-08T08:12:44;26.75;;;15.07;;
23676;SDS011;31493;49.058;12.190;2024-03-08T08:15:12;24.08;;;14.40;;
23676;SDS011;31493;49.058;12.190;2024-03-08T08:17:40;26.73;;;15.07;;
23676;SDS011;31493;49.058;12.190;2024-03-08T08:20:08;25.52;;;15.20;;
23676;SDS011;31493;49.058;12.190;2024-03-08T08:22:37;25.52;;;15.35;;
23676;SDS011;31493;49.058;12.190;2024-03-08T08:25:06;25.77;;;14.57;;
23676;SDS011;31493;49.058;12.190;2024-03-08T08:27:34;26.60;;;16.02;;
23676;SDS011;31493;49.058;12.190;2024-03-08T08:30:04;25.65;;;15.02;;
23676;SDS011;31493;49.058;12.190;2024-03-08T08:32:33;26.83;;;15.45;;
23676;SDS011;31493;49.058;12.190;2024-03-08T08:35:01;24.77;;;15.40;;
23676;SDS011;31493;49.058;12.190;2024-03-08T08:37:30;24.45;;;14.63;;
23676;SDS011;31493;49.058;12.190;2024-03-08T08:39:57;28.85;;;14.80;;
23676;SDS011;31493;49.058;12.190;2024-03-08T08:42:25;29.35;;;14.85;;
23676;SDS011;31493;49.058;12.190;2024-03-08T08:44:54;25.08;;;14.60;;
23676;SDS011;31493;49.058;12.190;2024-03-08T08:47:23;21.13;;;12.70;;
23676;SDS011;31493;49.058;12.190;2024-03-08T08:49:50;23.17;;;13.93;;
23676;SDS011;31493;49.058;12.190;2024-03-08T08:52:17;24.77;;;14.23;;
23676;SDS011;31493;49.058;12.190;2024-03-08T08:54:44;25.23;;;15.32;;
23676;SDS011;31493;49.058;12.190;2024-03-08T08:57:11;24.52;;;13.73;;
23676;SDS011;31493;49.058;12.190;2024-03-08T08:59:40;21.80;;;13.10;;
23676;SDS011;31493;49.058;12.190;2024-03-08T09:02:07;21.38;;;13.63;;
23676;SDS011;31493;49.058;12.190;2024-03-08T09:04:35;24.42;;;14.52;;
23676;SDS011;31493;49.058;12.190;2024-03-08T09:07:02;23.95;;;14.20;;
23676;SDS011;31493;49.058;12.190;2024-03-08T09:09:32;24.92;;;14.65;;
23676;SDS011;31493;49.058;12.190;2024-03-08T09:11:59;21.58;;;14.10;;
23676;SDS011;31493;49.058;12.190;2024-03-08T09:14:26;25.13;;;14.18;;
23676;SDS011;31493;49.058;12.190;2024-03-08T09:16:55;22.38;;;14.07;;
23676;SDS011;31493;49.058;12.190;2024-03-08T09:19:22;22.30;;;13.85;;
23676;SDS011;31493;49.058;12.190;2024-03-08T09:21:51;20.73;;;13.02;;
23676;SDS011;31493;49.058;12.190;2024-03-08T09:24:18;23.40;;;14.48;;
23676;SDS011;31493;49.058;12.190;2024-03-08T09:26:46;23.77;;;14.27;;
23676;SDS011;31493;49.058;12.190;2024-03-08T09:29:13;22.17;;;13.77;;
23676;SDS011;31493;49.058;12.190;2024-03-08T09:31:40;22.40;;;13.93;;
23676;SDS011;31493;49.058;12.190;2024-03-08T09:34:08;20.77;;;13.13;;
23676;SDS011;31493;49.058;12.190;2024-03-08T09:36:35;24.35;;;13.90;;
23676;SDS011;31493;49.058;12.190;2024-03-08T09:39:02;24.05;;;14.45;;
23676;SDS011;31493;49.058;12.190;2024-03-08T09:41:33;22.90;;;14.13;;
23676;SDS011;31493;49.058;12.190;2024-03-08T09:44:00;24.77;;;15.23;;
23676;SDS011;31493;49.058;12.190;2024-03-08T09:46:27;19.95;;;13.27;;
23676;SDS011;31493;49.058;12.190;2024-03-08T09:48:54;24.20;;;14.70;;
23676;SDS011;31493;49.058;12.190;2024-03-08T09:51:24;23.20;;;14.30;;
23676;SDS011;31493;49.058;12.190;2024-03-08T09:53:54;25.08;;;15.18;;
23676;SDS011;31493;49.058;12.190;2024-03-08T09:56:22;23.95;;;13.90;;
23676;SDS011;31493;49.058;12.190;2024-03-08T09:58:50;22.40;;;14.50;;
23676;SDS011;31493;49.058;12.190;2024-03-08T10:01:45;22.42;;;14.57;;
23676;SDS011;31493;49.058;12.190;2024-03-08T10:04:12;24.50;;;13.63;;
23676;SDS011;31493;49.058;12.190;2024-03-08T10:06:41;23.15;;;14.27;;
23676;SDS011;31493;49.058;12.190;2024-03-08T10:09:09;20.80;;;13.00;;
23676;SDS011;31493;49.058;12.190;2024-03-08T10:11:36;23.45;;;13.80;;
23676;SDS011;31493;49.058;12.190;2024-03-08T10:14:04;21.00;;;13.57;;
23676;SDS011;31493;49.058;12.190;2024-03-08T10:16:31;23.40;;;14.13;;
23676;SDS011;31493;49.058;12.190;2024-03-08T10:18:59;22.85;;;13.90;;
23676;SDS011;31493;49.058;12.190;2024-03-08T10:21:27;24.02;;;14.63;;
23676;SDS011;31493;49.058;12.190;2024-03-08T10:23:55;22.15;;;14.35;;
23676;SDS011;31493;49.058;12.190;2024-03-08T10:26:24;24.50;;;14.27;;
23676;SDS011;31493;49.058;12.190;2024-03-08T10:28:51;21.73;;;13.45;;
23676;SDS011;31493;49.058;12.190;2024-03-08T10:31:19;25.43;;;14.37;;
23676;SDS011;31493;49.058;12.190;2024-03-08T10:33:47;21.90;;;13.45;;
23676;SDS011;31493;49.058;12.190;2024-03-08T10:36:14;20.20;;;12.32;;
23676;SDS011;31493;49.058;12.190;2024-03-08T10:38:42;20.65;;;13.65;;
23676;SDS011;31493;49.058;12.190;2024-03-08T10:41:13;23.42;;;14.45;;
23676;SDS011;31493;49.058;12.190;2024-03-08T10:44:02;24.10;;;15.65;;
23676;SDS011;31493;49.058;12.190;2024-03-08T10:46:42;23.10;;;13.95;;
23676;SDS011;31493;49.058;12.190;2024-03-08T10:49:23;21.90;;;14.20;;
23676;SDS011;31493;49.058;12.190;2024-03-08T10:51:55;23.20;;;14.73;;
23676;SDS011;31493;49.058;12.190;2024-03-08T10:54:24;21.88;;;13.68;;
23676;SDS011;31493;49.058;12.190;2024-03-08T10:59:21;21.83;;;14.05;;
23676;SDS011;31493;49.058;12.190;2024-03-08T11:02:37;20.17;;;13.48;;
23676;SDS011;31493;49.058;12.190;2024-03-08T11:05:04;23.38;;;14.13;;
23676;SDS011;31493;49.058;12.190;2024-03-08T11:07:41;22.90;;;14.05;;
23676;SDS011;31493;49.058;12.190;2024-03-08T11:10:18;21.75;;;14.13;;
23676;SDS011;31493;49.058;12.190;2024-03-08T11:12:46;20.38;;;13.30;;
23676;SDS011;31493;49.058;12.190;2024-03-08T11:15:13;19.38;;;12.75;;
23676;SDS011;31493;49.058;12.190;2024-03-08T11:17:46;20.10;;;13.20;;
23676;SDS011;31493;49.058;12.190;2024-03-08T11:20:14;20.88;;;13.73;;
23676;SDS011;31493;49.058;12.190;2024-03-08T11:22:47;20.95;;;13.45;;
23676;SDS011;31493;49.058;12.190;2024-03-08T11:25:32;21.05;;;12.90;;
23676;SDS011;31493;49.058;12.190;2024-03-08T11:28:08;18.20;;;12.98;;
23676;SDS011;31493;49.058;12.190;2024-03-08T11:30:42;16.60;;;11.45;;
23676;SDS011;31493;49.058;12.190;2024-03-08T11:33:15;17.23;;;11.63;;
23676;SDS011;31493;49.058;12.190;2024-03-08T11:35:43;17.50;;;11.30;;
23676;SDS011;31493;49.058;12.190;2024-03-08T11:38:11;18.60;;;12.90;;
23676;SDS011;31493;49.058;12.190;2024-03-08T11:40:40;18.60;;;11.65;;
23676;SDS011;31493;49.058;12.190;2024-03-08T11:43:07;17.13;;;11.27;;
23676;SDS011;31493;49.058;12.190;2024-03-08T11:45:35;17.65;;;11.23;;
23676;SDS011;31493;49.058;12.190;2024-03-08T11:48:03;18.08;;;11.93;;
23676;SDS011;31493;49.058;12.190;2024-03-08T11:50:32;16.27;;;10.38;;
23676;SDS011;31493;49.058;12.190;2024-03-08T11:53:02;15.88;;;10.43;;
23676;SDS011;31493;49.058;12.190;2024-03-08T11:55:30;14.90;;;10.18;;
23676;SDS011;31493;49.058;12.190;2024-03-08T11:58:02;14.38;;;10.52;;
23676;SDS011;31493;49.058;12.190;2024-03-08T12:00:30;15.52;;;10.68;;
23676;SDS011;31493;49.058;12.190;2024-03-08T12:03:01;15.20;;;10.40;;
23676;SDS011;31493;49.058;12.190;2024-03-08T12:05:29;14.18;;;10.02;;
23676;SDS011;31493;49.058;12.190;2024-03-08T12:07:58;14.43;;;9.85;;
23676;SDS011;31493;49.058;12.190;2024-03-08T12:10:25;13.50;;;9.60;;
23676;SDS011;31493;49.058;12.190;2024-03-08T12:12:54;12.80;;;9.20;;
23676;SDS011;31493;49.058;12.190;2024-03-08T12:15:24;13.88;;;8.95;;
23676;SDS011;31493;49.058;12.190;2024-03-08T12:17:53;12.77;;;9.02;;
23676;SDS011;31493;49.058;12.190;2024-03-08T12:20:22;14.20;;;9.50;;
23676;SDS011;31493;49.058;12.190;2024-03-08T12:22:50;11.73;;;8.70;;
23676;SDS011;31493;49.058;12.190;2024-03-08T12:25:20;11.05;;;8.10;;
23676;SDS011;31493;49.058;12.190;2024-03-08T12:27:47;12.13;;;9.00;;
23676;SDS011;31493;49.058;12.190;2024-03-08T12:30:18;12.15;;;8.93;;
23676;SDS011;31493;49.058;12.190;2024-03-08T12:32:54;13.43;;;9.10;;
23676;SDS011;31493;49.058;12.190;2024-03-08T12:35:24;12.45;;;8.68;;
23676;SDS011;31493;49.058;12.190;2024-03-08T12:37:52;13.82;;;9.30;;
23676;SDS011;31493;49.058;12.190;2024-03-08T12:40:26;12.00;;;8.82;;
23676;SDS011;31493;49.058;12.190;2024-03-08T12:42:54;13.15;;;8.52;;
23676;SDS011;31493;49.058;12.190;2024-03-08T12:45:21;11.65;;;8.07;;
23676;SDS011;31493;49.058;12.190;2024-03-08T12:47:52;10.02;;;7.88;;
23676;SDS011;31493;49.058;12.190;2024-03-08T12:50:20;11.63;;;7.90;;
23676;SDS011;31493;49.058;12.190;2024-03-08T12:52:47;11.52;;;7.28;;
23676;SDS011;31493;49.058;12.190;2024-03-08T12:55:15;12.23;;;8.02;;
23676;SDS011;31493;49.058;12.190;2024-03-08T12:57:45;11.32;;;8.05;;
23676;SDS011;31493;49.058;12.190;2024-03-08T13:00:12;11.43;;;8.25;;
23676;SDS011;31493;49.058;12.190;2024-03-08T13:02:44;12.95;;;8.43;;
23676;SDS011;31493;49.058;12.190;2024-03-08T13:05:11;11.45;;;7.88;;
23676;SDS011;31493;49.058;12.190;2024-03-08T13:07:40;13.60;;;8.83;;
23676;SDS011;31493;49.058;12.190;2024-03-08T13:10:11;12.93;;;8.88;;
23676;SDS011;31493;49.058;12.190;2024-03-08T13:12:40;11.02;;;7.40;;
23676;SDS011;31493;49.058;12.190;2024-03-08T13:15:09;10.45;;;7.20;;
23676;SDS011;31493;49.058;12.190;2024-03-08T13:17:49;11.32;;;8.40;;
23676;SDS011;31493;49.058;12.190;2024-03-08T13:20:16;11.05;;;8.48;;
23676;SDS011;31493;49.058;12.190;2024-03-08T13:22:45;10.55;;;8.07;;
23676;SDS011;31493;49.058;12.190;2024-03-08T13:25:12;11.63;;;8.73;;
23676;SDS011;31493;49.058;12.190;2024-03-08T13:27:39;12.60;;;8.90;;
23676;SDS011;31493;49.058;12.190;2024-03-08T13:30:10;12.38;;;8.48;;
23676;SDS011;31493;49.058;12.190;2024-03-08T13:32:39;11.05;;;8.07;;
23676;SDS011;31493;49.058;12.190;2024-03-08T13:35:08;12.73;;;8.50;;
23676;SDS011;31493;49.058;12.190;2024-03-08T13:37:38;11.32;;;8.10;;
23676;SDS011;31493;49.058;12.190;2024-03-08T13:40:06;10.88;;;8.15;;
23676;SDS011;31493;49.058;12.190;2024-03-08T13:42:36;11.02;;;7.93;;
23676;SDS011;31493;49.058;12.190;2024-03-08T13:45:04;10.75;;;7.80;;
23676;SDS011;31493;49.058;12.190;2024-03-08T13:47:36;12.05;;;8.85;;
23676;SDS011;31493;49.058;12.190;2024-03-08T13:50:03;12.18;;;8.25;;
23676;SDS011;31493;49.058;12.190;2024-03-08T13:52:32;11.82;;;8.75;;
23676;SDS011;31493;49.058;12.190;2024-03-08T13:55:00;10.05;;;7.38;;
23676;SDS011;31493;49.058;12.190;2024-03-08T13:57:27;10.85;;;7.72;;
23676;SDS011;31493;49.058;12.190;2024-03-08T13:59:53;11.13;;;7.78;;
23676;SDS011;31493;49.058;12.190;2024-03-08T14:02:20;10.85;;;7.60;;
23676;SDS011;31493;49.058;12.190;2024-03-08T14:04:49;10.52;;;7.65;;
23676;SDS011;31493;49.058;12.190;2024-03-08T14:07:16;9.75;;;7.22;;
23676;SDS011;31493;49.058;12.190;2024-03-08T14:09:43;10.52;;;6.80;;
23676;SDS011;31493;49.058;12.190;2024-03-08T14:12:10;10.77;;;6.38;;
23676;SDS011;31493;49.058;12.190;2024-03-08T14:14:40;9.00;;;6.68;;
23676;SDS011;31493;49.058;12.190;2024-03-08T14:17:07;9.00;;;6.85;;
23676;SDS011;31493;49.058;12.190;2024-03-08T14:19:35;9.30;;;6.00;;
23676;SDS011;31493;49.058;12.190;2024-03-08T14:22:03;8.52;;;6.65;;
23676;SDS011;31493;49.058;12.190;2024-03-08T14:24:30;8.70;;;6.38;;
23676;SDS011;31493;49.058;12.190;2024-03-08T14:27:00;10.95;;;7.22;;
23676;SDS011;31493;49.058;12.190;2024-03-08T14:29:28;9.73;;;6.45;;
23676;SDS011;31493;49.058;12.190;2024-03-08T14:31:58;11.02;;;6.50;;
23676;SDS011;31493;49.058;12.190;2024-03-08T14:34:26;8.90;;;6.40;;
23676;SDS011;31493;49.058;12.190;2024-03-08T14:36:55;9.77;;;6.28;;